Time;durP1;ratioP1;P1;durP2;ratioP2;P2;SDS_P1;SDS_P2;PMS_P1;PMS_P2;Temp;Humidity;BMP_temperature;BMP_pressure;BME280_temperature;BME280_humidity;BME280_pressure;Samples;Min_cycle;Max_cycle;Signal;HPM_P1;HPM_P2
2023/11/22 00:00:27;;;;;;;5.05;3.67;;;7.10;99.90;;;;;;4924485;29;20251;-72
2023/11/22 00:02:55;;;;;;;5.60;3.83;;;7.10;99.90;;;;;;4924748;29;20742;-72
2023/11/22 00:05:22;;;;;;;4.40;3.30;;;7.10;99.90;;;;;;4919445;29;20703;-72
2023/11/22 00:07:49;;;;;;;3.72;2.92;;;7.10;99.90;;;;;;4925759;29;20697;-72
2023/11/22 00:10:15;;;;;;;4.30;3.78;;;7.10;99.90;;;;;;4927125;29;20228;-72
2023/11/22 00:12:42;;;;;;;5.63;4.10;;;7.10;99.90;;;;;;4928028;29;20220;-72
2023/11/22 04:32:08;;;;;;;3.10;2.80;;;3.10;99.90;;;;;;5304990;23;20604;-70
2023/11/22 04:34:35;;;;;;;3.97;3.58;;;3.10;99.90;;;;;;4975846;28;20387;-69
2023/11/22 04:37:01;;;;;;;3.90;2.55;;;3.00;99.90;;;;;;4977801;28;20203;-69
2023/11/22 04:39:28;;;;;;;3.25;2.75;;;3.00;99.90;;;;;;4977967;28;20207;-69
2023/11/22 04:41:55;;;;;;;4.05;3.25;;;3.10;99.90;;;;;;4955061;28;20236;-68
2023/11/22 04:44:40;;;;;;;4.88;2.95;;;3.10;99.90;;;;;;4950769;28;20205;-70
2023/11/22 04:47:08;;;;;;;3.55;3.25;;;3.10;99.90;;;;;;4957915;28;20216;-69
2023/11/22 04:49:34;;;;;;;4.25;3.35;;;3.10;99.90;;;;;;4958119;28;20225;-69
2023/11/22 04:52:01;;;;;;;5.38;3.45;;;3.10;99.90;;;;;;4950574;28;20243;-69
2023/11/22 04:54:28;;;;;;;2.97;2.50;;;3.00;99.90;;;;;;4957899;28;20592;-69
2023/11/22 04:56:55;;;;;;;3.33;2.65;;;3.00;99.90;;;;;;4958161;28;20215;-68
2023/11/22 04:59:22;;;;;;;3.22;2.65;;;3.10;99.90;;;;;;4957920;28;20205;-70
2023/11/22 05:01:49;;;;;;;2.90;2.63;;;3.00;99.90;;;;;;4957891;28;20233;-70
2023/11/22 05:04:18;;;;;;;3.65;2.60;;;3.10;99.90;;;;;;4950026;28;20554;-70
2023/11/22 05:06:45;;;;;;;3.50;2.65;;;3.10;99.90;;;;;;4950033;28;20233;-70
2023/11/22 05:09:14;;;;;;;4.63;3.00;;;3.10;99.90;;;;;;4945379;28;20216;-70
2023/11/22 05:11:41;;;;;;;3.65;2.78;;;3.10;99.90;;;;;;4942176;28;20705;-70
2023/11/22 05:14:08;;;;;;;4.05;2.95;;;3.10;99.90;;;;;;4944547;28;20622;-69
2023/11/22 05:16:35;;;;;;;4.03;2.90;;;3.20;99.90;;;;;;4942964;28;20216;-70
2023/11/22 05:19:02;;;;;;;5.70;2.70;;;3.20;99.90;;;;;;4942330;28;20208;-69
2023/11/22 05:21:30;;;;;;;4.18;2.55;;;3.20;99.90;;;;;;4942364;28;20672;-71
2023/11/22 05:23:56;;;;;;;3.90;2.55;;;3.20;99.90;;;;;;4948677;28;20232;-70
2023/11/22 05:26:23;;;;;;;4.53;3.33;;;3.20;99.90;;;;;;4942515;28;20476;-70
2023/11/22 05:28:50;;;;;;;4.75;3.03;;;3.20;99.90;;;;;;4947976;28;20216;-70
2023/11/22 05:31:17;;;;;;;4.10;3.08;;;3.20;99.90;;;;;;4953674;28;20256;-69
2023/11/22 05:33:43;;;;;;;3.17;2.88;;;3.20;99.90;;;;;;4951345;28;20212;-70
2023/11/22 05:36:11;;;;;;;4.40;3.20;;;3.30;99.90;;;;;;4954247;28;20399;-70
2023/11/22 05:38:39;;;;;;;3.80;3.20;;;3.30;99.90;;;;;;4954717;28;20208;-70
2023/11/22 05:41:06;;;;;;;4.20;3.10;;;3.30;99.90;;;;;;4954833;28;20237;-70
2023/11/22 05:43:36;;;;;;;3.35;2.58;;;3.20;99.90;;;;;;4954963;28;20212;-70
2023/11/22 05:46:03;;;;;;;2.60;2.40;;;3.20;99.90;;;;;;4954351;28;20228;-71
2023/11/22 05:48:30;;;;;;;3.25;2.47;;;3.20;99.90;;;;;;4954908;28;20209;-70
2023/11/22 05:50:57;;;;;;;3.47;2.58;;;3.20;99.90;;;;;;4955136;28;20229;-70
2023/11/22 05:53:23;;;;;;;3.30;3.00;;;3.20;99.90;;;;;;4954792;28;20208;-72
2023/11/22 05:55:52;;;;;;;5.30;2.60;;;3.10;99.90;;;;;;4954227;28;20205;-69
2023/11/22 05:58:19;;;;;;;4.55;2.78;;;3.10;99.90;;;;;;4954529;28;20219;-70
2023/11/22 06:00:47;;;;;;;2.88;2.67;;;3.20;99.90;;;;;;4954609;28;20228;-70
2023/11/22 06:03:14;;;;;;;4.05;2.78;;;3.20;99.90;;;;;;4955003;28;20212;-70
2023/11/22 06:05:41;;;;;;;2.53;2.05;;;3.10;99.90;;;;;;4953567;28;20208;-70
2023/11/22 06:08:09;;;;;;;4.03;2.90;;;3.10;99.90;;;;;;4954510;28;20724;-70
2023/11/22 06:10:35;;;;;;;2.83;2.63;;;3.10;99.90;;;;;;4954174;28;20230;-70
2023/11/22 06:13:03;;;;;;;3.10;2.40;;;3.00;99.90;;;;;;4954379;28;20212;-70
2023/11/22 06:15:30;;;;;;;3.75;2.60;;;3.00;99.90;;;;;;4953758;28;20212;-71
2023/11/22 06:17:57;;;;;;;4.65;2.67;;;3.00;99.90;;;;;;4953036;28;20212;-70
2023/11/22 06:20:26;;;;;;;3.35;2.10;;;3.10;99.90;;;;;;4954059;28;20212;-71
2023/11/22 06:22:53;;;;;;;4.68;2.85;;;3.00;99.90;;;;;;4954026;28;20699;-69
2023/11/22 06:25:19;;;;;;;4.80;2.80;;;3.10;99.90;;;;;;4967463;28;20204;-68
2023/11/22 06:27:46;;;;;;;3.17;2.50;;;3.00;99.90;;;;;;4946858;28;20694;-69
2023/11/22 06:30:14;;;;;;;3.63;2.85;;;3.10;99.90;;;;;;4954216;28;20209;-69
2023/11/22 06:32:42;;;;;;;2.60;2.40;;;3.10;99.90;;;;;;4953055;28;20216;-68
2023/11/22 06:35:11;;;;;;;3.63;2.80;;;3.10;99.90;;;;;;4953535;28;20615;-69
2023/11/22 06:37:37;;;;;;;3.13;2.83;;;3.10;99.90;;;;;;4953735;28;20264;-69
2023/11/22 06:40:05;;;;;;;3.45;2.53;;;3.10;99.90;;;;;;4953968;28;20243;-69
2023/11/22 06:42:33;;;;;;;2.85;2.60;;;3.10;99.90;;;;;;4953608;28;20336;-69
2023/11/22 06:45:00;;;;;;;5.40;2.70;;;3.10;99.90;;;;;;4953551;28;20581;-71
2023/11/22 06:47:28;;;;;;;2.75;2.55;;;3.10;99.90;;;;;;4953337;28;20735;-71
2023/11/22 06:49:55;;;;;;;4.22;2.88;;;3.10;99.90;;;;;;4953591;28;20215;-71
2023/11/22 06:52:22;;;;;;;4.35;2.58;;;3.00;99.90;;;;;;4953645;28;20620;-71
2023/11/22 06:54:48;;;;;;;3.17;2.47;;;3.00;99.90;;;;;;4946620;28;20209;-70
2023/11/22 06:57:15;;;;;;;2.95;2.50;;;3.00;99.90;;;;;;4953504;28;20209;-70
2023/11/22 06:59:42;;;;;;;2.95;2.50;;;3.00;99.90;;;;;;4953328;28;20216;-71
2023/11/22 07:02:09;;;;;;;3.92;2.90;;;3.10;99.90;;;;;;4953540;28;20224;-71
2023/11/22 07:04:37;;;;;;;3.17;2.88;;;3.10;99.90;;;;;;4966490;28;20296;-70
2023/11/22 07:07:05;;;;;;;4.53;2.83;;;3.10;99.90;;;;;;4966870;28;20705;-70
2023/11/22 07:09:32;;;;;;;2.75;2.42;;;3.10;99.90;;;;;;4964507;28;20216;-70
2023/11/22 07:11:59;;;;;;;3.20;2.00;;;3.00;99.90;;;;;;4967182;28;20233;-71
2023/11/22 07:14:26;;;;;;;2.50;2.30;;;3.00;99.90;;;;;;4963744;28;20215;-69
2023/11/22 07:16:53;;;;;;;4.15;3.00;;;2.90;99.90;;;;;;4966346;28;20196;-69
2023/11/22 07:19:20;;;;;;;2.58;2.38;;;2.90;99.90;;;;;;4965245;28;20215;-69
2023/11/22 07:21:48;;;;;;;3.30;2.13;;;2.80;99.90;;;;;;4965238;28;20263;-69
2023/11/22 07:24:15;;;;;;;2.50;2.30;;;2.80;99.90;;;;;;4966422;28;20262;-67
2023/11/22 07:26:43;;;;;;;2.50;1.83;;;2.80;99.90;;;;;;4963220;28;20232;-70
2023/11/22 07:29:11;;;;;;;2.42;2.22;;;2.80;99.90;;;;;;4965609;28;20216;-70
2023/11/22 07:31:38;;;;;;;2.50;2.20;;;2.70;99.90;;;;;;4962164;28;20239;-70
2023/11/22 07:34:05;;;;;;;3.95;2.15;;;2.60;99.90;;;;;;4965738;28;20206;-69
2023/11/22 07:36:32;;;;;;;2.40;2.13;;;2.60;99.90;;;;;;4961724;28;20208;-72
2023/11/22 07:39:02;;;;;;;3.45;2.42;;;2.60;99.90;;;;;;4965426;28;20231;-73
2023/11/22 07:41:31;;;;;;;3.00;2.15;;;2.60;99.90;;;;;;4961758;28;20251;-70
2023/11/22 07:43:58;;;;;;;2.55;1.75;;;2.60;99.90;;;;;;4965290;28;20681;-70
2023/11/22 07:46:25;;;;;;;3.05;2.28;;;2.50;99.90;;;;;;4961906;28;20231;-71
2023/11/22 07:48:52;;;;;;;3.30;1.90;;;2.50;99.90;;;;;;4964360;28;20668;-71
2023/11/22 07:51:18;;;;;;;1.90;1.65;;;2.50;99.90;;;;;;4963772;28;20234;-71
2023/11/22 07:53:45;;;;;;;2.58;1.88;;;2.50;99.90;;;;;;4951518;28;20204;-70
2023/11/22 07:56:13;;;;;;;2.25;2.00;;;2.50;99.90;;;;;;4952574;28;20208;-70
2023/11/22 07:58:40;;;;;;;2.42;1.90;;;2.40;99.90;;;;;;4953255;28;20239;-70
2023/11/22 08:01:12;;;;;;;2.42;1.75;;;2.30;99.90;;;;;;4953300;28;20229;-69
2023/11/22 08:03:43;;;;;;;3.50;2.00;;;2.40;99.90;;;;;;4947915;28;20291;-69
2023/11/22 08:06:10;;;;;;;2.83;2.10;;;2.40;99.90;;;;;;4947103;28;20240;-70
2023/11/22 08:08:39;;;;;;;2.95;2.58;;;2.40;99.90;;;;;;4943337;28;20595;-69
2023/11/22 08:11:14;;;;;;;2.20;2.00;;;2.30;99.90;;;;;;4952962;28;20220;-70
2023/11/22 08:13:44;;;;;;;4.22;2.20;;;2.30;99.90;;;;;;4950693;28;20208;-69
2023/11/22 08:16:12;;;;;;;2.60;2.17;;;2.30;99.90;;;;;;4952597;28;20665;-69
2023/11/22 08:18:40;;;;;;;2.40;2.00;;;2.30;99.90;;;;;;4952488;28;20235;-71
2023/11/22 08:21:08;;;;;;;2.45;1.73;;;2.30;99.90;;;;;;4953405;28;20235;-72
2023/11/22 08:23:34;;;;;;;2.95;1.45;;;2.20;99.90;;;;;;4952823;28;20208;-71
2023/11/22 08:26:02;;;;;;;5.03;2.38;;;2.20;99.90;;;;;;4959737;28;20397;-72
2023/11/22 08:28:30;;;;;;;4.30;2.67;;;2.30;99.90;;;;;;4958917;28;20270;-69
2023/11/22 08:30:58;;;;;;;3.67;2.05;;;2.30;99.90;;;;;;4962185;28;20235;-72
2023/11/22 08:33:24;;;;;;;3.45;2.45;;;2.30;99.90;;;;;;4952248;28;20216;-69
2023/11/22 08:35:58;;;;;;;3.05;2.50;;;2.30;99.90;;;;;;4951896;28;20204;-69
2023/11/22 08:38:24;;;;;;;2.88;1.50;;;2.30;99.90;;;;;;4952627;28;20632;-70
2023/11/22 08:40:51;;;;;;;1.55;1.42;;;2.30;99.90;;;;;;4952329;28;20232;-71
2023/11/22 08:43:22;;;;;;;4.25;2.17;;;2.30;99.90;;;;;;4956077;28;20208;-71
2023/11/22 08:45:49;;;;;;;3.47;2.13;;;2.30;99.90;;;;;;4955473;28;20204;-71
2023/11/22 08:48:17;;;;;;;2.40;2.00;;;2.30;99.90;;;;;;4955656;28;20228;-70
2023/11/22 08:50:44;;;;;;;3.10;2.00;;;2.30;99.90;;;;;;4955692;28;20228;-70
2023/11/22 08:53:12;;;;;;;3.25;2.35;;;2.30;99.90;;;;;;4956030;28;20591;-72
2023/11/22 08:55:39;;;;;;;2.75;2.28;;;2.30;99.90;;;;;;4955147;28;20208;-71
2023/11/22 08:58:08;;;;;;;4.22;2.50;;;2.40;99.90;;;;;;4955749;28;20212;-71
2023/11/22 09:00:35;;;;;;;2.20;2.00;;;2.40;99.90;;;;;;4955561;28;20238;-72
2023/11/22 09:03:03;;;;;;;2.83;2.45;;;2.40;99.90;;;;;;4950916;28;20210;-70
2023/11/22 09:05:31;;;;;;;3.65;2.58;;;2.50;99.90;;;;;;4955533;28;20291;-68
2023/11/22 09:07:58;;;;;;;4.97;2.20;;;2.50;99.90;;;;;;4955697;28;20224;-70
2023/11/22 09:10:26;;;;;;;3.75;2.10;;;2.50;99.90;;;;;;4956097;28;20299;-69
2023/11/22 09:12:53;;;;;;;2.08;1.88;;;2.50;99.90;;;;;;4955726;28;20217;-71
2023/11/22 09:15:26;;;;;;;2.85;1.83;;;2.50;99.90;;;;;;4954996;28;20212;-69
2023/11/22 09:17:53;;;;;;;2.60;2.30;;;2.50;99.90;;;;;;4955412;28;20229;-70
2023/11/22 09:20:21;;;;;;;3.75;2.17;;;2.50;99.90;;;;;;4955675;28;20215;-70
2023/11/22 09:22:50;;;;;;;3.78;2.70;;;2.50;99.90;;;;;;4955480;28;20208;-70
2023/11/22 09:25:19;;;;;;;3.50;2.50;;;2.50;99.90;;;;;;4954885;28;20213;-70
2023/11/22 09:27:47;;;;;;;3.42;2.67;;;2.50;99.90;;;;;;4955008;28;20224;-72
2023/11/22 09:30:19;;;;;;;3.60;2.25;;;2.50;99.90;;;;;;4954345;28;20208;-69
2023/11/22 09:32:46;;;;;;;2.75;2.35;;;2.60;99.90;;;;;;4952910;28;20279;-69
2023/11/22 09:35:15;;;;;;;4.55;2.47;;;2.60;99.90;;;;;;4954778;28;20213;-70
2023/11/22 09:37:43;;;;;;;7.18;2.70;;;2.60;99.90;;;;;;4951977;28;20210;-71
2023/11/22 09:40:13;;;;;;;2.83;2.15;;;2.60;99.90;;;;;;4955280;28;20216;-71
2023/11/22 09:42:41;;;;;;;6.93;3.10;;;2.60;99.90;;;;;;4952041;28;20616;-71
2023/11/22 09:45:08;;;;;;;3.33;2.60;;;2.60;99.90;;;;;;4954718;28;20300;-69
2023/11/22 09:47:35;;;;;;;3.30;3.00;;;2.60;99.90;;;;;;4955154;28;20240;-71
2023/11/22 09:50:05;;;;;;;4.40;2.70;;;2.60;99.90;;;;;;4961196;28;20211;-70
2023/11/22 09:52:35;;;;;;;4.80;2.50;;;2.60;99.90;;;;;;4952552;28;20233;-70
2023/11/22 09:55:03;;;;;;;4.00;2.92;;;2.60;99.90;;;;;;4954380;28;20209;-71
2023/11/22 09:57:34;;;;;;;5.60;2.72;;;2.60;99.90;;;;;;4954966;28;20205;-70
2023/11/22 10:00:03;;;;;;;3.65;2.67;;;2.60;99.90;;;;;;4954700;28;20212;-69
2023/11/22 10:02:30;;;;;;;3.05;2.33;;;2.60;99.90;;;;;;4954845;28;20224;-70
2023/11/22 10:04:57;;;;;;;3.50;3.00;;;2.70;99.90;;;;;;4954542;28;20709;-71
2023/11/22 10:07:23;;;;;;;2.70;2.17;;;2.80;99.90;;;;;;4954447;28;20225;-70
2023/11/22 10:09:51;;;;;;;4.72;3.00;;;2.80;99.90;;;;;;4956124;28;20220;-70
2023/11/22 10:12:21;;;;;;;3.35;2.75;;;2.80;99.90;;;;;;4958906;28;20239;-71
2023/11/22 10:14:49;;;;;;;6.95;2.67;;;2.90;99.90;;;;;;4953863;28;20213;-71
2023/11/22 10:17:16;;;;;;;2.75;2.45;;;2.90;99.90;;;;;;4958596;28;20215;-73
2023/11/22 10:19:43;;;;;;;4.00;2.80;;;2.90;99.90;;;;;;4952609;28;20212;-68
2023/11/22 10:22:10;;;;;;;2.65;2.42;;;2.90;99.90;;;;;;4950256;28;20243;-69
2023/11/22 10:24:37;;;;;;;5.63;2.70;;;2.80;99.90;;;;;;4954346;28;20248;-70
2023/11/22 10:27:05;;;;;;;2.95;2.55;;;2.90;99.90;;;;;;4953821;28;20241;-70
2023/11/22 10:29:33;;;;;;;3.38;2.50;;;2.90;99.90;;;;;;4954507;28;20223;-69
2023/11/22 10:32:01;;;;;;;4.97;2.53;;;2.90;99.90;;;;;;4953956;28;20236;-70
2023/11/22 10:34:30;;;;;;;4.30;3.05;;;2.90;99.90;;;;;;4954177;28;20214;-70
2023/11/22 10:36:57;;;;;;;3.70;2.92;;;2.90;99.90;;;;;;4953797;28;20210;-69
2023/11/22 10:39:25;;;;;;;3.00;2.45;;;2.90;99.90;;;;;;4953939;28;20216;-69
2023/11/22 10:41:52;;;;;;;5.15;3.05;;;3.00;99.90;;;;;;4953843;28;20241;-69
2023/11/22 10:44:21;;;;;;;4.68;3.00;;;3.00;99.90;;;;;;4953965;28;20375;-69
2023/11/22 10:46:48;;;;;;;5.05;3.10;;;3.00;99.90;;;;;;4958056;28;20236;-69
2023/11/22 10:49:16;;;;;;;3.03;2.70;;;3.10;99.90;;;;;;4957200;28;20234;-68
2023/11/22 10:51:49;;;;;;;4.82;3.03;;;3.10;99.90;;;;;;4950407;28;20318;-72
2023/11/22 10:54:16;;;;;;;8.90;3.30;;;3.20;99.90;;;;;;4950382;28;20240;-69
2023/11/22 10:56:47;;;;;;;5.10;3.00;;;3.20;99.90;;;;;;4953618;28;20613;-70
2023/11/22 10:59:14;;;;;;;3.97;3.05;;;3.20;99.90;;;;;;4953999;28;20202;-69
2023/11/22 11:01:49;;;;;;;3.15;2.80;;;3.20;99.90;;;;;;4949997;28;20249;-69
2023/11/22 11:04:21;;;;;;;4.25;3.35;;;3.20;99.90;;;;;;4952843;28;20228;-69
2023/11/22 11:06:55;;;;;;;3.95;2.85;;;3.20;99.90;;;;;;4953426;28;20284;-68
2023/11/22 11:09:26;;;;;;;4.47;3.08;;;3.20;99.90;;;;;;4953970;28;20215;-70
2023/11/22 11:11:53;;;;;;;4.60;3.00;;;3.30;99.90;;;;;;4953379;28;20236;-70
2023/11/22 11:14:20;;;;;;;4.00;3.00;;;3.30;99.90;;;;;;4953588;28;20209;-69
2023/11/22 11:16:49;;;;;;;3.50;3.20;;;3.30;99.90;;;;;;4953329;28;20212;-69
2023/11/22 11:19:18;;;;;;;3.15;2.65;;;3.40;99.90;;;;;;4950193;28;20216;-70
2023/11/22 11:21:45;;;;;;;4.25;3.08;;;3.50;99.90;;;;;;4952347;28;20293;-69
2023/11/22 11:24:13;;;;;;;4.47;3.10;;;3.50;99.90;;;;;;4953834;28;20204;-69
2023/11/22 11:26:39;;;;;;;5.35;2.63;;;3.50;99.90;;;;;;4947538;28;20201;-70
2023/11/22 11:29:07;;;;;;;3.63;3.25;;;3.60;99.90;;;;;;4953107;28;20598;-69
2023/11/22 11:31:41;;;;;;;3.88;3.20;;;3.50;99.90;;;;;;4952909;28;20244;-71
2023/11/22 11:34:08;;;;;;;4.30;3.05;;;3.50;99.90;;;;;;4952945;28;20201;-71
2023/11/22 11:36:39;;;;;;;3.60;2.88;;;3.50;99.90;;;;;;4953421;28;20222;-71
2023/11/22 11:39:09;;;;;;;3.33;3.03;;;3.40;99.90;;;;;;4950999;28;20208;-71
2023/11/22 11:41:37;;;;;;;4.43;2.95;;;3.50;99.90;;;;;;4948221;28;20268;-70
2023/11/22 11:44:04;;;;;;;5.88;3.63;;;3.50;99.90;;;;;;4949545;28;20591;-72
2023/11/22 11:46:32;;;;;;;6.53;3.67;;;3.40;99.90;;;;;;4953019;28;20207;-70
2023/11/22 11:49:01;;;;;;;5.00;3.15;;;3.50;99.90;;;;;;4953519;28;20247;-72
2023/11/22 11:51:28;;;;;;;3.45;3.15;;;3.50;99.90;;;;;;4954283;28;20235;-72
2023/11/22 11:53:56;;;;;;;3.95;3.40;;;3.50;99.90;;;;;;4953299;28;20208;-70
2023/11/22 11:56:26;;;;;;;5.70;3.50;;;3.50;99.90;;;;;;4953234;28;20210;-71
2023/11/22 11:58:53;;;;;;;5.47;3.38;;;3.40;99.90;;;;;;4951470;28;20202;-69
2023/11/22 12:01:21;;;;;;;2.95;2.45;;;3.40;99.90;;;;;;4953174;28;20224;-71
2023/11/22 12:03:48;;;;;;;3.90;2.50;;;3.30;99.90;;;;;;4953455;28;20216;-69
2023/11/22 12:06:16;;;;;;;5.30;3.30;;;3.30;99.90;;;;;;4952484;28;20236;-70
2023/11/22 12:08:43;;;;;;;3.30;2.78;;;3.30;99.90;;;;;;4952287;28;20224;-71
2023/11/22 12:11:11;;;;;;;2.88;2.42;;;3.30;99.90;;;;;;4951671;28;20233;-70
2023/11/22 12:13:39;;;;;;;3.97;2.70;;;3.30;99.90;;;;;;4945541;28;20588;-71
2023/11/22 12:16:10;;;;;;;4.63;3.65;;;3.20;99.90;;;;;;4949583;28;20215;-71
2023/11/22 12:18:40;;;;;;;4.70;3.35;;;3.20;99.90;;;;;;4949565;28;20203;-71
2023/11/22 12:21:07;;;;;;;3.75;2.90;;;3.30;99.90;;;;;;4951861;28;20607;-71
2023/11/22 12:23:34;;;;;;;3.42;2.90;;;3.20;99.90;;;;;;4951121;28;20237;-72
2023/11/22 12:26:03;;;;;;;3.17;2.78;;;3.20;99.90;;;;;;4949640;28;20209;-71
2023/11/22 12:28:32;;;;;;;3.55;2.85;;;3.20;99.90;;;;;;4950967;28;20224;-73
2023/11/22 12:31:09;;;;;;;5.13;3.35;;;3.20;99.90;;;;;;4954134;28;20220;-72
2023/11/22 12:33:36;;;;;;;6.00;3.42;;;3.10;99.90;;;;;;4956466;28;20217;-73
2023/11/22 12:36:03;;;;;;;3.85;3.22;;;3.10;99.90;;;;;;4956046;28;20209;-72
2023/11/22 12:38:31;;;;;;;3.15;2.42;;;3.00;99.90;;;;;;4956319;28;20204;-72
2023/11/22 12:40:58;;;;;;;3.78;2.92;;;3.00;99.90;;;;;;4956768;28;20299;-72
2023/11/22 12:43:26;;;;;;;4.22;3.58;;;2.90;99.90;;;;;;4956442;28;20236;-73
2023/11/22 12:46:01;;;;;;;5.05;2.95;;;2.90;99.90;;;;;;4956105;28;20204;-72
2023/11/22 12:48:29;;;;;;;3.35;2.83;;;2.90;99.90;;;;;;4956179;28;20223;-70
2023/11/22 12:50:57;;;;;;;4.32;3.00;;;2.90;99.90;;;;;;4956389;28;20321;-71
2023/11/22 12:53:25;;;;;;;5.20;3.17;;;2.90;99.90;;;;;;4953931;28;20272;-73
2023/11/22 12:55:54;;;;;;;3.60;2.60;;;2.90;99.90;;;;;;4955974;28;20209;-73
2023/11/22 12:58:23;;;;;;;3.40;2.78;;;2.90;99.90;;;;;;4955781;28;20208;-74
2023/11/22 13:00:54;;;;;;;4.03;3.05;;;2.90;99.90;;;;;;4956142;28;20315;-73
2023/11/22 13:03:22;;;;;;;4.75;2.63;;;2.90;99.90;;;;;;4955677;28;20205;-73
2023/11/22 13:05:51;;;;;;;6.90;3.40;;;2.90;99.90;;;;;;4955618;28;20212;-72
2023/11/22 13:08:19;;;;;;;3.85;2.92;;;2.80;99.90;;;;;;4955496;28;20257;-73
2023/11/22 13:10:50;;;;;;;4.13;3.35;;;2.80;99.90;;;;;;4955920;28;20225;-72
2023/11/22 13:13:17;;;;;;;6.50;3.63;;;2.80;99.90;;;;;;4955258;28;20216;-72
2023/11/22 13:15:43;;;;;;;4.05;3.17;;;2.70;99.90;;;;;;4955559;28;20220;-72
2023/11/22 13:18:11;;;;;;;4.63;3.33;;;2.70;99.90;;;;;;4955685;28;20261;-71
2023/11/22 13:20:40;;;;;;;4.03;2.92;;;2.60;99.90;;;;;;4955502;28;20224;-72
2023/11/22 13:23:07;;;;;;;2.63;2.40;;;2.60;99.90;;;;;;4956750;28;20213;-72
2023/11/22 13:25:34;;;;;;;4.32;3.72;;;2.60;99.90;;;;;;4956802;28;20264;-71
2023/11/22 13:28:02;;;;;;;5.28;3.08;;;2.60;99.90;;;;;;4954616;28;20224;-71
2023/11/22 13:30:29;;;;;;;4.32;3.60;;;2.50;99.90;;;;;;4955813;28;20239;-71
2023/11/22 13:32:57;;;;;;;3.60;3.10;;;2.50;99.90;;;;;;4955687;28;20212;-72
2023/11/22 13:35:24;;;;;;;3.40;2.75;;;2.50;99.90;;;;;;4957030;28;20864;-73
2023/11/22 13:37:52;;;;;;;4.57;3.00;;;2.60;99.90;;;;;;4948822;28;20297;-74
2023/11/22 13:40:21;;;;;;;4.68;2.95;;;2.60;99.90;;;;;;4946232;28;20683;-73
2023/11/22 13:42:52;;;;;;;5.72;3.65;;;2.60;99.90;;;;;;4950641;28;20201;-72
2023/11/22 13:45:20;;;;;;;3.40;3.05;;;2.60;99.90;;;;;;4946442;28;20206;-72
2023/11/22 13:47:48;;;;;;;4.15;2.63;;;2.60;99.90;;;;;;4955015;28;20541;-72
2023/11/22 13:50:18;;;;;;;4.88;3.38;;;2.60;99.90;;;;;;4947663;28;20692;-70
2023/11/22 13:52:48;;;;;;;4.32;2.50;;;2.60;99.90;;;;;;4953118;28;20262;-70
2023/11/22 13:55:22;;;;;;;3.33;2.50;;;2.60;99.90;;;;;;4953428;28;20221;-72
2023/11/22 13:57:49;;;;;;;2.70;2.47;;;2.70;99.90;;;;;;4951150;28;20205;-71
2023/11/22 14:00:19;;;;;;;6.47;3.35;;;2.60;99.90;;;;;;4945861;28;20213;-71
2023/11/22 14:02:47;;;;;;;3.97;3.03;;;2.70;99.90;;;;;;4952909;28;20226;-70
2023/11/22 14:05:15;;;;;;;5.03;3.45;;;2.70;99.90;;;;;;4943010;28;20239;-69
2023/11/22 14:07:43;;;;;;;3.08;2.67;;;2.70;99.90;;;;;;4944225;28;20658;-70
2023/11/22 14:10:10;;;;;;;5.28;2.63;;;2.70;99.90;;;;;;4945379;28;20225;-72
2023/11/22 14:12:39;;;;;;;3.83;3.30;;;2.70;99.90;;;;;;4949018;28;20248;-71
2023/11/22 14:15:08;;;;;;;5.85;3.50;;;2.70;99.90;;;;;;4955120;28;20620;-71
2023/11/22 14:17:37;;;;;;;4.03;3.50;;;2.70;99.90;;;;;;4949002;28;20213;-72
2023/11/22 14:20:05;;;;;;;5.72;3.35;;;2.70;99.90;;;;;;4946544;28;20209;-71
2023/11/22 14:22:32;;;;;;;4.18;2.67;;;2.70;99.90;;;;;;4952655;28;20227;-72
2023/11/22 14:25:00;;;;;;;5.10;3.85;;;2.70;99.90;;;;;;4944999;28;20626;-72
2023/11/22 14:27:30;;;;;;;3.50;2.90;;;2.70;99.90;;;;;;4942729;28;20209;-72
2023/11/22 14:30:01;;;;;;;4.05;3.03;;;2.70;99.90;;;;;;4954381;28;20256;-72
2023/11/22 14:32:30;;;;;;;4.22;3.00;;;2.70;99.90;;;;;;4954034;28;20295;-72
2023/11/22 14:34:58;;;;;;;3.38;2.78;;;2.70;99.90;;;;;;4950336;28;20202;-72
2023/11/22 14:37:25;;;;;;;3.25;2.95;;;2.70;99.90;;;;;;4940600;28;20248;-71
2023/11/22 14:39:53;;;;;;;3.10;2.80;;;2.70;99.90;;;;;;4954638;28;20233;-71
2023/11/22 14:42:21;;;;;;;6.35;3.50;;;2.70;99.90;;;;;;4941996;28;20229;-72
2023/11/22 14:44:49;;;;;;;4.85;4.00;;;2.70;99.90;;;;;;4941904;28;20211;-76
2023/11/22 14:47:22;;;;;;;4.95;3.15;;;2.70;99.90;;;;;;4954149;28;20209;-72
2023/11/22 14:49:49;;;;;;;4.50;2.80;;;2.70;99.90;;;;;;4954357;28;20228;-72
2023/11/22 14:52:17;;;;;;;3.42;3.05;;;2.70;99.90;;;;;;4953155;28;20228;-73
2023/11/22 14:54:44;;;;;;;4.10;3.35;;;2.70;99.90;;;;;;4953960;28;20268;-73
2023/11/22 14:57:12;;;;;;;2.60;2.40;;;2.60;99.90;;;;;;4949564;28;20219;-71
2023/11/22 14:59:39;;;;;;;4.03;3.72;;;2.60;99.90;;;;;;4941949;28;20208;-71
2023/11/22 15:02:09;;;;;;;3.83;2.65;;;2.60;99.90;;;;;;4953688;28;20736;-71
2023/11/22 15:04:37;;;;;;;3.95;2.80;;;2.50;99.90;;;;;;4952304;28;20212;-72
2023/11/22 15:07:05;;;;;;;4.43;2.75;;;2.60;99.90;;;;;;4953470;28;20208;-73
2023/11/22 15:09:32;;;;;;;2.70;2.50;;;2.60;99.90;;;;;;4953369;28;20279;-72
2023/11/22 15:11:59;;;;;;;4.10;3.30;;;2.60;99.90;;;;;;4953548;28;20650;-73
2023/11/22 15:14:26;;;;;;;3.53;2.67;;;2.60;99.90;;;;;;4953015;28;20231;-73
2023/11/22 15:16:54;;;;;;;5.22;3.22;;;2.60;99.90;;;;;;4949063;28;20205;-72
2023/11/22 15:19:24;;;;;;;4.00;2.80;;;2.60;99.90;;;;;;4936381;28;20229;-72
2023/11/22 15:21:53;;;;;;;3.33;2.97;;;2.60;99.90;;;;;;4936041;28;20266;-71
2023/11/22 15:24:20;;;;;;;5.75;3.53;;;2.60;99.90;;;;;;4936018;28;20292;-73
2023/11/22 15:26:46;;;;;;;4.93;2.90;;;2.50;99.90;;;;;;4935352;28;20208;-73
2023/11/22 15:29:15;;;;;;;5.13;4.10;;;2.60;99.90;;;;;;4934912;28;20232;-71
2023/11/22 15:31:43;;;;;;;4.80;3.00;;;2.60;99.90;;;;;;4945812;28;20223;-71
2023/11/22 15:34:10;;;;;;;5.50;3.97;;;2.50;99.90;;;;;;4952935;28;20236;-71
2023/11/22 15:36:37;;;;;;;3.95;3.15;;;2.50;99.90;;;;;;4952394;28;20267;-71
2023/11/22 15:39:11;;;;;;;2.58;2.38;;;2.50;99.90;;;;;;4953187;28;20204;-71
2023/11/22 15:41:38;;;;;;;4.07;3.53;;;2.50;99.90;;;;;;4952026;28;20324;-70
2023/11/22 15:44:05;;;;;;;3.65;3.13;;;2.50;99.90;;;;;;4953045;28;20208;-73
2023/11/22 15:46:32;;;;;;;5.47;3.35;;;2.50;99.90;;;;;;4952405;28;20681;-72
2023/11/22 15:48:59;;;;;;;4.47;3.67;;;2.50;99.90;;;;;;4953024;28;20239;-72
2023/11/22 15:51:26;;;;;;;4.32;3.10;;;2.50;99.90;;;;;;4952364;28;20236;-73
2023/11/22 15:53:53;;;;;;;4.45;3.00;;;2.50;99.90;;;;;;4953485;28;20204;-73
2023/11/22 15:56:21;;;;;;;4.43;3.05;;;2.40;99.90;;;;;;4954799;28;20710;-74
2023/11/22 15:58:49;;;;;;;2.72;2.53;;;2.40;99.90;;;;;;4955245;28;20577;-73
2023/11/22 16:01:16;;;;;;;4.20;3.08;;;2.40;99.90;;;;;;4956305;28;20306;-73
2023/11/22 16:03:44;;;;;;;4.03;3.63;;;2.40;99.90;;;;;;4946416;28;20686;-73
2023/11/22 16:06:13;;;;;;;4.70;3.00;;;2.40;99.90;;;;;;4952310;28;20217;-73
2023/11/22 16:08:39;;;;;;;4.22;3.60;;;2.40;99.90;;;;;;4952328;28;20247;-72
2023/11/22 16:11:08;;;;;;;10.73;5.45;;;2.30;99.90;;;;;;4952060;28;20466;-71
2023/11/22 16:13:37;;;;;;;6.85;4.55;;;2.30;99.90;;;;;;4952301;28;20598;-71
2023/11/22 16:16:03;;;;;;;5.75;3.80;;;2.30;99.90;;;;;;4952392;28;20705;-71
2023/11/22 16:18:30;;;;;;;4.80;4.03;;;2.30;99.90;;;;;;4951750;28;20721;-71
2023/11/22 16:20:58;;;;;;;4.82;3.92;;;2.30;99.90;;;;;;4952764;28;20306;-71
2023/11/22 16:23:25;;;;;;;6.70;4.20;;;2.30;99.90;;;;;;4956589;28;20231;-72
2023/11/22 16:25:52;;;;;;;4.40;3.97;;;2.30;99.90;;;;;;4944609;28;20220;-72
2023/11/22 16:28:19;;;;;;;6.70;4.72;;;2.30;99.90;;;;;;4958861;28;20213;-73
2023/11/22 16:30:48;;;;;;;7.22;3.80;;;2.20;99.90;;;;;;4951500;28;20330;-72
2023/11/22 16:33:15;;;;;;;5.03;4.53;;;2.20;99.90;;;;;;4959325;28;20716;-72
2023/11/22 16:35:42;;;;;;;6.10;3.95;;;2.20;99.90;;;;;;4965929;28;20301;-72
2023/11/22 16:38:09;;;;;;;6.25;3.25;;;2.20;99.90;;;;;;4961875;28;20299;-74
2023/11/22 16:40:37;;;;;;;6.28;3.55;;;2.20;99.90;;;;;;4957378;28;20232;-71
2023/11/22 16:43:04;;;;;;;5.38;4.47;;;2.10;99.90;;;;;;4963286;28;20204;-72
2023/11/22 16:45:31;;;;;;;5.80;4.10;;;2.10;99.90;;;;;;4952245;28;20212;-71
2023/11/22 16:48:00;;;;;;;6.35;4.25;;;2.10;99.90;;;;;;4957191;28;20208;-72
2023/11/22 16:50:28;;;;;;;3.88;3.42;;;2.20;99.90;;;;;;4960313;28;20276;-72
2023/11/22 16:52:56;;;;;;;5.80;4.32;;;2.20;99.90;;;;;;4957435;28;20293;-71
2023/11/22 16:55:24;;;;;;;4.30;3.90;;;2.20;99.90;;;;;;4962688;28;20212;-72
2023/11/22 16:57:52;;;;;;;4.95;3.78;;;2.20;99.90;;;;;;4954681;28;20301;-72
2023/11/22 17:00:20;;;;;;;4.75;3.63;;;2.20;99.90;;;;;;4953864;28;20221;-72
2023/11/22 17:02:49;;;;;;;4.72;3.28;;;2.20;99.90;;;;;;4966980;28;20208;-72
2023/11/22 17:05:20;;;;;;;4.70;3.67;;;2.20;99.90;;;;;;4962773;28;20223;-71
2023/11/22 17:07:47;;;;;;;4.88;3.05;;;2.20;99.90;;;;;;4957713;28;20689;-71
2023/11/22 17:10:15;;;;;;;3.25;2.95;;;2.20;99.90;;;;;;4954386;28;20309;-72
2023/11/22 17:12:42;;;;;;;4.75;3.50;;;2.20;99.90;;;;;;4965955;28;20246;-72
2023/11/22 17:15:10;;;;;;;3.25;2.95;;;2.20;99.90;;;;;;4961516;28;20216;-72
2023/11/22 17:17:39;;;;;;;4.55;2.90;;;2.20;99.90;;;;;;4954120;28;20244;-72